sensor_id;sensor_type;location;lat;lon;timestamp;P1;durP1;ratioP1;P2;durP2;ratioP2
21999;SDS011;11164;48.818;2.322;2022-11-20T00:00:28;9.18;;;2.83;;
21999;SDS011;11164;48.818;2.322;2022-11-20T00:02:54;6.72;;;2.80;;
21999;SDS011;11164;48.818;2.322;2022-11-20T00:05:19;5.97;;;2.50;;
21999;SDS011;11164;48.818;2.322;2022-11-20T00:07:45;12.13;;;3.13;;
21999;SDS011;11164;48.818;2.322;2022-11-20T00:10:11;5.18;;;2.40;;
21999;SDS011;11164;48.818;2.322;2022-11-20T00:12:36;8.90;;;2.90;;
21999;SDS011;11164;48.818;2.322;2022-11-20T00:15:02;9.75;;;2.80;;
21999;SDS011;11164;48.818;2.322;2022-11-20T00:17:28;7.97;;;2.85;;
21999;SDS011;11164;48.818;2.322;2022-11-20T00:19:53;5.13;;;2.13;;
21999;SDS011;11164;48.818;2.322;2022-11-20T00:22:18;7.68;;;2.67;;
21999;SDS011;11164;48.818;2.322;2022-11-20T00:24:44;5.50;;;2.30;;
21999;SDS011;11164;48.818;2.322;2022-11-20T00:27:09;7.63;;;2.38;;
21999;SDS011;11164;48.818;2.322;2022-11-20T00:29:34;5.40;;;2.55;;
21999;SDS011;11164;48.818;2.322;2022-11-20T00:32:00;7.93;;;2.70;;
21999;SDS011;11164;48.818;2.322;2022-11-20T00:34:25;5.95;;;2.38;;
21999;SDS011;11164;48.818;2.322;2022-11-20T00:36:50;6.28;;;2.45;;
21999;SDS011;11164;48.818;2.322;2022-11-20T00:39:16;7.55;;;3.00;;
21999;SDS011;11164;48.818;2.322;2022-11-20T00:41:41;8.93;;;2.60;;
21999;SDS011;11164;48.818;2.322;2022-11-20T00:44:06;5.53;;;2.50;;
21999;SDS011;11164;48.818;2.322;2022-11-20T00:46:32;7.18;;;2.47;;
21999;SDS011;11164;48.818;2.322;2022-11-20T00:48:57;7.30;;;2.15;;
21999;SDS011;11164;48.818;2.322;2022-11-20T00:51:23;5.75;;;2.40;;
21999;SDS011;11164;48.818;2.322;2022-11-20T00:53:50;5.88;;;2.85;;
21999;SDS011;11164;48.818;2.322;2022-11-20T00:56:16;8.48;;;2.47;;
21999;SDS011;11164;48.818;2.322;2022-11-20T00:58:44;7.72;;;2.15;;
21999;SDS011;11164;48.818;2.322;2022-11-20T01:01:12;6.43;;;2.10;;
21999;SDS011;11164;48.818;2.322;2022-11-20T01:03:40;5.60;;;2.08;;
21999;SDS011;11164;48.818;2.322;2022-11-20T01:06:10;7.57;;;2.10;;
21999;SDS011;11164;48.818;2.322;2022-11-20T01:08:43;6.40;;;2.10;;
21999;SDS011;11164;48.818;2.322;2022-11-20T01:11:10;6.53;;;1.85;;
21999;SDS011;11164;48.818;2.322;2022-11-20T01:13:41;4.57;;;2.10;;
21999;SDS011;11164;48.818;2.322;2022-11-20T01:16:12;4.13;;;1.80;;
21999;SDS011;11164;48.818;2.322;2022-11-20T01:18:41;6.95;;;1.75;;
21999;SDS011;11164;48.818;2.322;2022-11-20T01:21:08;5.38;;;1.83;;
21999;SDS011;11164;48.818;2.322;2022-11-20T01:23:37;8.80;;;2.08;;
21999;SDS011;11164;48.818;2.322;2022-11-20T01:26:04;6.43;;;1.75;;
21999;SDS011;11164;48.818;2.322;2022-11-20T01:28:31;5.93;;;2.10;;
21999;SDS011;11164;48.818;2.322;2022-11-20T01:30:57;7.63;;;2.10;;
21999;SDS011;11164;48.818;2.322;2022-11-20T01:33:23;6.95;;;2.33;;
21999;SDS011;11164;48.818;2.322;2022-11-20T01:35:49;7.40;;;2.53;;
21999;SDS011;11164;48.818;2.322;2022-11-20T01:38:15;8.80;;;2.30;;
21999;SDS011;11164;48.818;2.322;2022-11-20T01:40:41;7.32;;;2.63;;
21999;SDS011;11164;48.818;2.322;2022-11-20T01:43:12;6.93;;;2.17;;
21999;SDS011;11164;48.818;2.322;2022-11-20T01:48:35;5.90;;;1.90;;
21999;SDS011;11164;48.818;2.322;2022-11-20T01:51:05;5.53;;;2.20;;
21999;SDS011;11164;48.818;2.322;2022-11-20T01:53:37;4.68;;;2.03;;
21999;SDS011;11164;48.818;2.322;2022-11-20T01:56:04;4.35;;;1.88;;
21999;SDS011;11164;48.818;2.322;2022-11-20T01:58:33;7.68;;;2.38;;
21999;SDS011;11164;48.818;2.322;2022-11-20T02:01:03;7.60;;;2.15;;
21999;SDS011;11164;48.818;2.322;2022-11-20T02:03:29;6.28;;;1.95;;
21999;SDS011;11164;48.818;2.322;2022-11-20T02:08:39;7.25;;;2.00;;
21999;SDS011;11164;48.818;2.322;2022-11-20T02:11:04;4.28;;;1.70;;
21999;SDS011;11164;48.818;2.322;2022-11-20T02:13:30;5.72;;;1.77;;
21999;SDS011;11164;48.818;2.322;2022-11-20T02:16:19;7.85;;;1.98;;
21999;SDS011;11164;48.818;2.322;2022-11-20T02:18:54;6.72;;;1.85;;
21999;SDS011;11164;48.818;2.322;2022-11-20T02:21:24;3.92;;;1.42;;
21999;SDS011;11164;48.818;2.322;2022-11-20T02:24:12;4.65;;;1.50;;
21999;SDS011;11164;48.818;2.322;2022-11-20T02:29:27;6.95;;;1.90;;
21999;SDS011;11164;48.818;2.322;2022-11-20T02:31:57;6.60;;;1.88;;
21999;SDS011;11164;48.818;2.322;2022-11-20T02:34:25;5.60;;;1.80;;
21999;SDS011;11164;48.818;2.322;2022-11-20T02:36:51;3.95;;;1.63;;
21999;SDS011;11164;48.818;2.322;2022-11-20T02:39:17;6.15;;;1.75;;
21999;SDS011;11164;48.818;2.322;2022-11-20T02:41:45;7.57;;;1.60;;
21999;SDS011;11164;48.818;2.322;2022-11-20T02:44:10;8.30;;;1.77;;
21999;SDS011;11164;48.818;2.322;2022-11-20T02:46:36;4.38;;;1.52;;
21999;SDS011;11164;48.818;2.322;2022-11-20T02:49:02;5.13;;;1.40;;
21999;SDS011;11164;48.818;2.322;2022-11-20T02:51:28;7.65;;;1.60;;
21999;SDS011;11164;48.818;2.322;2022-11-20T02:53:53;6.28;;;1.70;;
21999;SDS011;11164;48.818;2.322;2022-11-20T02:56:19;9.15;;;1.60;;
21999;SDS011;11164;48.818;2.322;2022-11-20T02:58:45;6.18;;;1.25;;
21999;SDS011;11164;48.818;2.322;2022-11-20T03:01:11;5.40;;;1.40;;
21999;SDS011;11164;48.818;2.322;2022-11-20T03:03:36;7.75;;;1.60;;
21999;SDS011;11164;48.818;2.322;2022-11-20T03:06:01;4.95;;;1.40;;
21999;SDS011;11164;48.818;2.322;2022-11-20T03:08:27;4.30;;;1.70;;
21999;SDS011;11164;48.818;2.322;2022-11-20T03:10:53;5.78;;;1.40;;
21999;SDS011;11164;48.818;2.322;2022-11-20T03:13:18;7.10;;;1.63;;
21999;SDS011;11164;48.818;2.322;2022-11-20T03:15:43;6.45;;;1.42;;
21999;SDS011;11164;48.818;2.322;2022-11-20T03:18:09;6.43;;;1.38;;
21999;SDS011;11164;48.818;2.322;2022-11-20T03:20:34;8.00;;;1.42;;
21999;SDS011;11164;48.818;2.322;2022-11-20T03:23:00;2.95;;;0.95;;
21999;SDS011;11164;48.818;2.322;2022-11-20T03:25:25;5.30;;;1.45;;
21999;SDS011;11164;48.818;2.322;2022-11-20T03:27:51;7.22;;;1.60;;
21999;SDS011;11164;48.818;2.322;2022-11-20T03:30:16;6.53;;;1.35;;
21999;SDS011;11164;48.818;2.322;2022-11-20T03:32:42;6.53;;;1.60;;
21999;SDS011;11164;48.818;2.322;2022-11-20T03:35:07;4.93;;;1.52;;
21999;SDS011;11164;48.818;2.322;2022-11-20T03:37:33;5.57;;;1.40;;
21999;SDS011;11164;48.818;2.322;2022-11-20T03:39:58;5.63;;;1.23;;
21999;SDS011;11164;48.818;2.322;2022-11-20T03:42:24;7.07;;;1.50;;
21999;SDS011;11164;48.818;2.322;2022-11-20T03:45:08;6.40;;;1.60;;
21999;SDS011;11164;48.818;2.322;2022-11-20T03:47:33;5.72;;;1.38;;
21999;SDS011;11164;48.818;2.322;2022-11-20T03:49:59;6.60;;;1.60;;
21999;SDS011;11164;48.818;2.322;2022-11-20T03:52:24;5.45;;;1.42;;
21999;SDS011;11164;48.818;2.322;2022-11-20T03:54:49;4.60;;;1.63;;
21999;SDS011;11164;48.818;2.322;2022-11-20T03:57:15;6.18;;;1.70;;
21999;SDS011;11164;48.818;2.322;2022-11-20T03:59:40;3.95;;;1.38;;
21999;SDS011;11164;48.818;2.322;2022-11-20T04:02:05;5.07;;;1.88;;
21999;SDS011;11164;48.818;2.322;2022-11-20T04:04:31;4.88;;;1.48;;
21999;SDS011;11164;48.818;2.322;2022-11-20T04:06:56;4.85;;;1.80;;
21999;SDS011;11164;48.818;2.322;2022-11-20T04:09:21;4.72;;;1.33;;
21999;SDS011;11164;48.818;2.322;2022-11-20T04:11:47;4.22;;;1.42;;
21999;SDS011;11164;48.818;2.322;2022-11-20T04:14:13;5.18;;;1.30;;
21999;SDS011;11164;48.818;2.322;2022-11-20T04:16:39;4.07;;;1.15;;
21999;SDS011;11164;48.818;2.322;2022-11-20T04:19:06;5.35;;;1.67;;
21999;SDS011;11164;48.818;2.322;2022-11-20T04:21:34;6.25;;;1.65;;
21999;SDS011;11164;48.818;2.322;2022-11-20T04:24:00;4.35;;;1.45;;
21999;SDS011;11164;48.818;2.322;2022-11-20T04:26:26;8.93;;;1.33;;
21999;SDS011;11164;48.818;2.322;2022-11-20T04:28:53;6.28;;;1.63;;
21999;SDS011;11164;48.818;2.322;2022-11-20T04:31:20;4.60;;;1.48;;
21999;SDS011;11164;48.818;2.322;2022-11-20T04:33:47;7.47;;;1.73;;
21999;SDS011;11164;48.818;2.322;2022-11-20T04:36:13;6.47;;;1.58;;
21999;SDS011;11164;48.818;2.322;2022-11-20T04:38:43;3.90;;;1.30;;
21999;SDS011;11164;48.818;2.322;2022-11-20T04:41:16;7.20;;;1.38;;
21999;SDS011;11164;48.818;2.322;2022-11-20T04:43:46;4.95;;;1.52;;
21999;SDS011;11164;48.818;2.322;2022-11-20T04:46:13;5.15;;;1.70;;
21999;SDS011;11164;48.818;2.322;2022-11-20T04:48:39;6.45;;;1.60;;
21999;SDS011;11164;48.818;2.322;2022-11-20T04:51:04;5.25;;;1.63;;
21999;SDS011;11164;48.818;2.322;2022-11-20T04:53:29;4.53;;;1.17;;
21999;SDS011;11164;48.818;2.322;2022-11-20T04:56:05;5.20;;;1.50;;
21999;SDS011;11164;48.818;2.322;2022-11-20T04:58:33;6.32;;;1.63;;
21999;SDS011;11164;48.818;2.322;2022-11-20T05:03:53;5.38;;;1.45;;
21999;SDS011;11164;48.818;2.322;2022-11-20T05:06:19;4.60;;;1.55;;
21999;SDS011;11164;48.818;2.322;2022-11-20T05:08:45;4.75;;;1.45;;
21999;SDS011;11164;48.818;2.322;2022-11-20T05:11:12;5.78;;;1.60;;
21999;SDS011;11164;48.818;2.322;2022-11-20T05:13:43;5.38;;;1.80;;
21999;SDS011;11164;48.818;2.322;2022-11-20T05:16:10;5.10;;;1.73;;
21999;SDS011;11164;48.818;2.322;2022-11-20T05:18:38;6.15;;;1.67;;
21999;SDS011;11164;48.818;2.322;2022-11-20T05:21:04;6.03;;;1.95;;
21999;SDS011;11164;48.818;2.322;2022-11-20T05:23:30;5.68;;;2.03;;
21999;SDS011;11164;48.818;2.322;2022-11-20T05:25:57;4.97;;;2.10;;
21999;SDS011;11164;48.818;2.322;2022-11-20T05:28:23;8.27;;;2.42;;
21999;SDS011;11164;48.818;2.322;2022-11-20T05:30:50;7.93;;;2.47;;
21999;SDS011;11164;48.818;2.322;2022-11-20T05:33:15;5.22;;;2.00;;
21999;SDS011;11164;48.818;2.322;2022-11-20T05:35:41;8.43;;;2.47;;
21999;SDS011;11164;48.818;2.322;2022-11-20T05:38:07;10.95;;;3.55;;
21999;SDS011;11164;48.818;2.322;2022-11-20T05:40:32;6.28;;;2.60;;
21999;SDS011;11164;48.818;2.322;2022-11-20T05:42:58;6.70;;;2.63;;
21999;SDS011;11164;48.818;2.322;2022-11-20T05:45:23;5.88;;;2.35;;
21999;SDS011;11164;48.818;2.322;2022-11-20T05:47:48;6.60;;;2.50;;
21999;SDS011;11164;48.818;2.322;2022-11-20T05:50:14;5.22;;;2.15;;
21999;SDS011;11164;48.818;2.322;2022-11-20T05:52:39;10.13;;;2.33;;
21999;SDS011;11164;48.818;2.322;2022-11-20T05:55:05;6.57;;;2.40;;
21999;SDS011;11164;48.818;2.322;2022-11-20T05:57:31;8.93;;;2.53;;
21999;SDS011;11164;48.818;2.322;2022-11-20T05:59:56;7.88;;;2.30;;
21999;SDS011;11164;48.818;2.322;2022-11-20T06:02:22;5.78;;;2.33;;
21999;SDS011;11164;48.818;2.322;2022-11-20T06:04:47;7.65;;;2.35;;
21999;SDS011;11164;48.818;2.322;2022-11-20T06:07:13;6.80;;;2.35;;
21999;SDS011;11164;48.818;2.322;2022-11-20T06:09:38;6.82;;;2.60;;
21999;SDS011;11164;48.818;2.322;2022-11-20T06:12:04;10.40;;;2.92;;
21999;SDS011;11164;48.818;2.322;2022-11-20T06:14:29;7.07;;;2.58;;
21999;SDS011;11164;48.818;2.322;2022-11-20T06:16:55;9.07;;;3.55;;
21999;SDS011;11164;48.818;2.322;2022-11-20T06:19:20;10.18;;;3.53;;
21999;SDS011;11164;48.818;2.322;2022-11-20T06:21:47;10.07;;;3.28;;
21999;SDS011;11164;48.818;2.322;2022-11-20T06:24:14;8.07;;;3.40;;
21999;SDS011;11164;48.818;2.322;2022-11-20T06:26:39;11.45;;;3.92;;
21999;SDS011;11164;48.818;2.322;2022-11-20T06:29:04;7.38;;;3.50;;
21999;SDS011;11164;48.818;2.322;2022-11-20T06:31:30;7.68;;;3.30;;
21999;SDS011;11164;48.818;2.322;2022-11-20T06:33:57;7.63;;;3.72;;
21999;SDS011;11164;48.818;2.322;2022-11-20T06:36:23;8.30;;;3.47;;
21999;SDS011;11164;48.818;2.322;2022-11-20T06:38:48;8.50;;;3.28;;
21999;SDS011;11164;48.818;2.322;2022-11-20T06:41:15;10.35;;;4.03;;
21999;SDS011;11164;48.818;2.322;2022-11-20T06:43:42;10.43;;;3.60;;
21999;SDS011;11164;48.818;2.322;2022-11-20T06:46:08;9.35;;;3.95;;
21999;SDS011;11164;48.818;2.322;2022-11-20T06:48:35;8.18;;;3.80;;
21999;SDS011;11164;48.818;2.322;2022-11-20T06:51:02;8.90;;;4.10;;
21999;SDS011;11164;48.818;2.322;2022-11-20T06:53:29;8.90;;;3.75;;
21999;SDS011;11164;48.818;2.322;2022-11-20T06:55:55;7.57;;;3.67;;
21999;SDS011;11164;48.818;2.322;2022-11-20T06:58:21;10.60;;;4.20;;
21999;SDS011;11164;48.818;2.322;2022-11-20T07:00:46;7.90;;;3.63;;
21999;SDS011;11164;48.818;2.322;2022-11-20T07:03:12;7.57;;;3.72;;
21999;SDS011;11164;48.818;2.322;2022-11-20T07:05:37;8.48;;;3.90;;
21999;SDS011;11164;48.818;2.322;2022-11-20T07:08:03;7.55;;;3.90;;
21999;SDS011;11164;48.818;2.322;2022-11-20T07:10:29;8.30;;;3.78;;
21999;SDS011;11164;48.818;2.322;2022-11-20T07:12:55;10.40;;;4.05;;
21999;SDS011;11164;48.818;2.322;2022-11-20T07:15:21;11.80;;;3.95;;
21999;SDS011;11164;48.818;2.322;2022-11-20T07:17:48;14.40;;;4.18;;
21999;SDS011;11164;48.818;2.322;2022-11-20T07:20:14;9.65;;;3.58;;
21999;SDS011;11164;48.818;2.322;2022-11-20T07:22:39;13.13;;;4.05;;
21999;SDS011;11164;48.818;2.322;2022-11-20T07:25:06;12.90;;;3.83;;
21999;SDS011;11164;48.818;2.322;2022-11-20T07:27:31;9.43;;;3.47;;
21999;SDS011;11164;48.818;2.322;2022-11-20T07:29:57;9.07;;;3.65;;
21999;SDS011;11164;48.818;2.322;2022-11-20T07:32:22;8.38;;;3.47;;
21999;SDS011;11164;48.818;2.322;2022-11-20T07:34:48;9.23;;;3.85;;
21999;SDS011;11164;48.818;2.322;2022-11-20T07:37:13;9.98;;;3.40;;
21999;SDS011;11164;48.818;2.322;2022-11-20T07:39:39;7.57;;;3.33;;
21999;SDS011;11164;48.818;2.322;2022-11-20T07:42:05;8.48;;;3.08;;
21999;SDS011;11164;48.818;2.322;2022-11-20T07:44:31;8.95;;;3.17;;
21999;SDS011;11164;48.818;2.322;2022-11-20T07:46:57;8.43;;;2.75;;
21999;SDS011;11164;48.818;2.322;2022-11-20T07:49:22;5.97;;;2.75;;
21999;SDS011;11164;48.818;2.322;2022-11-20T07:51:49;8.48;;;2.78;;
21999;SDS011;11164;48.818;2.322;2022-11-20T07:54:16;7.82;;;2.70;;
21999;SDS011;11164;48.818;2.322;2022-11-20T07:56:41;9.65;;;2.47;;
21999;SDS011;11164;48.818;2.322;2022-11-20T07:59:06;7.90;;;2.85;;
21999;SDS011;11164;48.818;2.322;2022-11-20T08:01:32;7.82;;;2.72;;
21999;SDS011;11164;48.818;2.322;2022-11-20T08:03:57;8.15;;;3.13;;
21999;SDS011;11164;48.818;2.322;2022-11-20T08:06:22;8.77;;;2.83;;
21999;SDS011;11164;48.818;2.322;2022-11-20T08:08:49;8.23;;;2.78;;
21999;SDS011;11164;48.818;2.322;2022-11-20T08:11:15;7.30;;;2.80;;
21999;SDS011;11164;48.818;2.322;2022-11-20T08:13:59;7.47;;;2.83;;
21999;SDS011;11164;48.818;2.322;2022-11-20T08:16:36;8.75;;;3.30;;
21999;SDS011;11164;48.818;2.322;2022-11-20T08:19:02;6.22;;;3.08;;
21999;SDS011;11164;48.818;2.322;2022-11-20T08:21:27;8.38;;;2.95;;
21999;SDS011;11164;48.818;2.322;2022-11-20T08:23:52;8.50;;;3.50;;
21999;SDS011;11164;48.818;2.322;2022-11-20T08:26:18;8.55;;;3.40;;
21999;SDS011;11164;48.818;2.322;2022-11-20T08:28:43;12.15;;;3.45;;
21999;SDS011;11164;48.818;2.322;2022-11-20T08:31:09;9.18;;;3.20;;
21999;SDS011;11164;48.818;2.322;2022-11-20T08:33:34;10.52;;;5.13;;
21999;SDS011;11164;48.818;2.322;2022-11-20T08:36:00;9.65;;;4.60;;
21999;SDS011;11164;48.818;2.322;2022-11-20T08:38:26;9.20;;;3.60;;
21999;SDS011;11164;48.818;2.322;2022-11-20T08:40:51;10.43;;;3.33;;
21999;SDS011;11164;48.818;2.322;2022-11-20T08:43:35;7.85;;;3.17;;
21999;SDS011;11164;48.818;2.322;2022-11-20T08:46:01;8.00;;;3.50;;
21999;SDS011;11164;48.818;2.322;2022-11-20T08:48:26;7.30;;;3.55;;
21999;SDS011;11164;48.818;2.322;2022-11-20T08:50:51;10.80;;;3.72;;
21999;SDS011;11164;48.818;2.322;2022-11-20T08:53:17;12.18;;;3.80;;
21999;SDS011;11164;48.818;2.322;2022-11-20T08:55:42;7.65;;;3.53;;
21999;SDS011;11164;48.818;2.322;2022-11-20T08:58:07;8.77;;;3.83;;
21999;SDS011;11164;48.818;2.322;2022-11-20T09:00:33;10.15;;;4.18;;
21999;SDS011;11164;48.818;2.322;2022-11-20T09:02:59;6.60;;;3.90;;
21999;SDS011;11164;48.818;2.322;2022-11-20T09:05:25;13.57;;;3.83;;
21999;SDS011;11164;48.818;2.322;2022-11-20T09:07:51;9.40;;;3.47;;
21999;SDS011;11164;48.818;2.322;2022-11-20T09:10:16;9.35;;;4.47;;
21999;SDS011;11164;48.818;2.322;2022-11-20T09:12:42;9.43;;;3.90;;
21999;SDS011;11164;48.818;2.322;2022-11-20T09:15:07;17.95;;;5.70;;
21999;SDS011;11164;48.818;2.322;2022-11-20T09:17:33;10.30;;;4.70;;
21999;SDS011;11164;48.818;2.322;2022-11-20T09:19:58;16.90;;;7.45;;
21999;SDS011;11164;48.818;2.322;2022-11-20T09:22:23;12.57;;;5.82;;
21999;SDS011;11164;48.818;2.322;2022-11-20T09:24:49;9.23;;;4.60;;
21999;SDS011;11164;48.818;2.322;2022-11-20T09:27:14;9.10;;;4.47;;
21999;SDS011;11164;48.818;2.322;2022-11-20T09:29:39;7.78;;;4.50;;
21999;SDS011;11164;48.818;2.322;2022-11-20T09:32:04;12.48;;;6.20;;
21999;SDS011;11164;48.818;2.322;2022-11-20T09:34:31;12.38;;;5.63;;
21999;SDS011;11164;48.818;2.322;2022-11-20T09:36:56;9.63;;;5.68;;
21999;SDS011;11164;48.818;2.322;2022-11-20T09:39:22;11.45;;;5.57;;
21999;SDS011;11164;48.818;2.322;2022-11-20T09:41:52;7.78;;;4.78;;
21999;SDS011;11164;48.818;2.322;2022-11-20T09:47:15;11.00;;;5.35;;
21999;SDS011;11164;48.818;2.322;2022-11-20T09:55:55;10.15;;;5.05;;
21999;SDS011;11164;48.818;2.322;2022-11-20T09:58:24;10.48;;;5.47;;
21999;SDS011;11164;48.818;2.322;2022-11-20T10:00:52;13.75;;;5.20;;
21999;SDS011;11164;48.818;2.322;2022-11-20T10:03:23;11.98;;;6.03;;
21999;SDS011;11164;48.818;2.322;2022-11-20T10:06:00;11.05;;;5.13;;
21999;SDS011;11164;48.818;2.322;2022-11-20T10:08:28;10.93;;;5.50;;
21999;SDS011;11164;48.818;2.322;2022-11-20T10:11:30;10.05;;;5.38;;
21999;SDS011;11164;48.818;2.322;2022-11-20T10:19:01;7.30;;;3.60;;
21999;SDS011;11164;48.818;2.322;2022-11-20T10:21:32;8.38;;;3.72;;
21999;SDS011;11164;48.818;2.322;2022-11-20T10:27:32;8.55;;;3.13;;
21999;SDS011;11164;48.818;2.322;2022-11-20T10:29:38;10.02;;;3.60;;
21999;SDS011;11164;48.818;2.322;2022-11-20T10:32:11;7.85;;;3.20;;
21999;SDS011;11164;48.818;2.322;2022-11-20T10:37:16;7.85;;;3.40;;
21999;SDS011;11164;48.818;2.322;2022-11-20T10:40:00;8.35;;;3.70;;
21999;SDS011;11164;48.818;2.322;2022-11-20T10:42:31;6.57;;;3.22;;
21999;SDS011;11164;48.818;2.322;2022-11-20T10:45:09;6.38;;;3.10;;
21999;SDS011;11164;48.818;2.322;2022-11-20T10:47:44;9.73;;;4.00;;
21999;SDS011;11164;48.818;2.322;2022-11-20T10:50:11;8.57;;;3.13;;
21999;SDS011;11164;48.818;2.322;2022-11-20T10:55:48;7.38;;;3.30;;
21999;SDS011;11164;48.818;2.322;2022-11-20T10:58:32;6.88;;;2.80;;
21999;SDS011;11164;48.818;2.322;2022-11-20T11:01:17;6.53;;;2.85;;
21999;SDS011;11164;48.818;2.322;2022-11-20T11:03:46;5.72;;;2.83;;
21999;SDS011;11164;48.818;2.322;2022-11-20T11:08:59;6.78;;;3.00;;
21999;SDS011;11164;48.818;2.322;2022-11-20T11:11:30;6.30;;;3.00;;
21999;SDS011;11164;48.818;2.322;2022-11-20T11:14:08;6.18;;;2.60;;
21999;SDS011;11164;48.818;2.322;2022-11-20T11:16:35;6.38;;;2.88;;
21999;SDS011;11164;48.818;2.322;2022-11-20T11:19:04;7.20;;;2.70;;
21999;SDS011;11164;48.818;2.322;2022-11-20T11:21:45;5.65;;;2.63;;
21999;SDS011;11164;48.818;2.322;2022-11-20T11:24:22;4.72;;;2.10;;
21999;SDS011;11164;48.818;2.322;2022-11-20T11:26:58;4.70;;;2.22;;
21999;SDS011;11164;48.818;2.322;2022-11-20T11:29:30;4.75;;;1.95;;
21999;SDS011;11164;48.818;2.322;2022-11-20T11:32:03;4.60;;;2.33;;
21999;SDS011;11164;48.818;2.322;2022-11-20T11:34:33;5.97;;;2.63;;
21999;SDS011;11164;48.818;2.322;2022-11-20T11:36:59;6.88;;;1.90;;
21999;SDS011;11164;48.818;2.322;2022-11-20T11:39:27;4.13;;;2.00;;
21999;SDS011;11164;48.818;2.322;2022-11-20T11:41:54;5.72;;;2.05;;
21999;SDS011;11164;48.818;2.322;2022-11-20T11:44:38;3.60;;;1.90;;
21999;SDS011;11164;48.818;2.322;2022-11-20T11:47:32;2.70;;;1.42;;
21999;SDS011;11164;48.818;2.322;2022-11-20T11:52:58;4.00;;;2.03;;
21999;SDS011;11164;48.818;2.322;2022-11-20T12:00:47;11.38;;;6.00;;
21999;SDS011;11164;48.818;2.322;2022-11-20T12:03:32;8.68;;;5.35;;
21999;SDS011;11164;48.818;2.322;2022-11-20T12:06:19;7.35;;;3.70;;
21999;SDS011;11164;48.818;2.322;2022-11-20T12:08:46;5.20;;;2.50;;
21999;SDS011;11164;48.818;2.322;2022-11-20T12:14:02;7.43;;;2.97;;
21999;SDS011;11164;48.818;2.322;2022-11-20T12:16:37;4.53;;;2.17;;
21999;SDS011;11164;48.818;2.322;2022-11-20T12:19:07;4.35;;;2.60;;
21999;SDS011;11164;48.818;2.322;2022-11-20T12:27:03;6.75;;;2.10;;
21999;SDS011;11164;48.818;2.322;2022-11-20T12:32:53;4.97;;;2.40;;
21999;SDS011;11164;48.818;2.322;2022-11-20T12:53:05;5.93;;;2.97;;
21999;SDS011;11164;48.818;2.322;2022-11-20T13:04:12;3.97;;;2.17;;
21999;SDS011;11164;48.818;2.322;2022-11-20T13:06:22;6.10;;;2.33;;
21999;SDS011;11164;48.818;2.322;2022-11-20T13:08:53;6.45;;;2.53;;
21999;SDS011;11164;48.818;2.322;2022-11-20T13:17:24;3.92;;;1.80;;
21999;SDS011;11164;48.818;2.322;2022-11-20T13:19:55;5.03;;;2.35;;
21999;SDS011;11164;48.818;2.322;2022-11-20T13:22:27;4.85;;;2.50;;
21999;SDS011;11164;48.818;2.322;2022-11-20T13:24:54;5.15;;;2.50;;
21999;SDS011;11164;48.818;2.322;2022-11-20T13:27:23;6.15;;;2.35;;
21999;SDS011;11164;48.818;2.322;2022-11-20T13:29:58;5.05;;;2.28;;
21999;SDS011;11164;48.818;2.322;2022-11-20T13:32:26;5.38;;;2.13;;
21999;SDS011;11164;48.818;2.322;2022-11-20T13:35:00;5.80;;;2.17;;
21999;SDS011;11164;48.818;2.322;2022-11-20T13:37:35;4.45;;;2.15;;
21999;SDS011;11164;48.818;2.322;2022-11-20T13:40:11;6.32;;;2.95;;
21999;SDS011;11164;48.818;2.322;2022-11-20T13:45:33;5.03;;;1.92;;
21999;SDS011;11164;48.818;2.322;2022-11-20T13:48:02;7.95;;;2.55;;
21999;SDS011;11164;48.818;2.322;2022-11-20T13:53:23;5.97;;;2.25;;
21999;SDS011;11164;48.818;2.322;2022-11-20T13:56:10;6.07;;;2.72;;
21999;SDS011;11164;48.818;2.322;2022-11-20T14:01:30;7.65;;;2.55;;
21999;SDS011;11164;48.818;2.322;2022-11-20T14:03:59;9.32;;;2.70;;
21999;SDS011;11164;48.818;2.322;2022-11-20T14:06:33;7.60;;;2.60;;
21999;SDS011;11164;48.818;2.322;2022-11-20T14:09:04;7.97;;;2.70;;
21999;SDS011;11164;48.818;2.322;2022-11-20T14:11:29;6.70;;;2.65;;
21999;SDS011;11164;48.818;2.322;2022-11-20T14:14:00;5.40;;;2.58;;
21999;SDS011;11164;48.818;2.322;2022-11-20T14:16:29;8.77;;;2.88;;
21999;SDS011;11164;48.818;2.322;2022-11-20T14:24:13;9.00;;;2.90;;
21999;SDS011;11164;48.818;2.322;2022-11-20T14:26:43;7.78;;;2.63;;
21999;SDS011;11164;48.818;2.322;2022-11-20T14:29:13;5.85;;;2.55;;
21999;SDS011;11164;48.818;2.322;2022-11-20T14:31:39;8.05;;;2.65;;
21999;SDS011;11164;48.818;2.322;2022-11-20T14:34:05;9.73;;;3.10;;
21999;SDS011;11164;48.818;2.322;2022-11-20T14:36:31;10.88;;;3.55;;
21999;SDS011;11164;48.818;2.322;2022-11-20T14:38:56;10.13;;;2.80;;
21999;SDS011;11164;48.818;2.322;2022-11-20T14:41:22;8.90;;;2.85;;
21999;SDS011;11164;48.818;2.322;2022-11-20T14:44:08;10.02;;;3.47;;
21999;SDS011;11164;48.818;2.322;2022-11-20T14:46:34;11.02;;;3.53;;
21999;SDS011;11164;48.818;2.322;2022-11-20T14:49:00;11.13;;;3.60;;
21999;SDS011;11164;48.818;2.322;2022-11-20T14:51:35;14.15;;;3.78;;
21999;SDS011;11164;48.818;2.322;2022-11-20T14:59:48;12.32;;;3.30;;
21999;SDS011;11164;48.818;2.322;2022-11-20T15:02:14;11.52;;;3.72;;
21999;SDS011;11164;48.818;2.322;2022-11-20T15:04:49;10.73;;;3.35;;
21999;SDS011;11164;48.818;2.322;2022-11-20T15:07:25;11.07;;;3.60;;
21999;SDS011;11164;48.818;2.322;2022-11-20T15:12:26;11.13;;;2.97;;
21999;SDS011;11164;48.818;2.322;2022-11-20T15:14:52;11.95;;;3.38;;
21999;SDS011;11164;48.818;2.322;2022-11-20T15:17:17;12.65;;;3.13;;
21999;SDS011;11164;48.818;2.322;2022-11-20T15:19:43;10.07;;;3.00;;
21999;SDS011;11164;48.818;2.322;2022-11-20T15:22:11;13.77;;;2.88;;
21999;SDS011;11164;48.818;2.322;2022-11-20T15:24:41;10.68;;;2.70;;
21999;SDS011;11164;48.818;2.322;2022-11-20T15:27:07;13.77;;;2.88;;
21999;SDS011;11164;48.818;2.322;2022-11-20T15:29:33;13.38;;;3.28;;
21999;SDS011;11164;48.818;2.322;2022-11-20T15:31:58;12.15;;;2.78;;
21999;SDS011;11164;48.818;2.322;2022-11-20T15:34:26;14.30;;;2.75;;
21999;SDS011;11164;48.818;2.322;2022-11-20T15:36:52;9.88;;;2.20;;
21999;SDS011;11164;48.818;2.322;2022-11-20T15:39:19;9.90;;;3.15;;
21999;SDS011;11164;48.818;2.322;2022-11-20T15:41:44;7.80;;;2.30;;
21999;SDS011;11164;48.818;2.322;2022-11-20T15:44:10;9.82;;;2.40;;
21999;SDS011;11164;48.818;2.322;2022-11-20T15:46:36;11.07;;;2.15;;
21999;SDS011;11164;48.818;2.322;2022-11-20T15:49:05;8.52;;;2.13;;
21999;SDS011;11164;48.818;2.322;2022-11-20T15:51:38;10.30;;;2.05;;
21999;SDS011;11164;48.818;2.322;2022-11-20T15:54:10;8.35;;;1.90;;
21999;SDS011;11164;48.818;2.322;2022-11-20T15:56:40;10.73;;;2.33;;
21999;SDS011;11164;48.818;2.322;2022-11-20T15:59:05;8.10;;;2.03;;
21999;SDS011;11164;48.818;2.322;2022-11-20T16:01:31;8.68;;;1.77;;
21999;SDS011;11164;48.818;2.322;2022-11-20T16:03:57;7.93;;;1.70;;
21999;SDS011;11164;48.818;2.322;2022-11-20T16:06:23;11.68;;;2.35;;
21999;SDS011;11164;48.818;2.322;2022-11-20T16:08:49;5.72;;;2.22;;
21999;SDS011;11164;48.818;2.322;2022-11-20T16:11:15;7.20;;;2.03;;
21999;SDS011;11164;48.818;2.322;2022-11-20T16:13:41;6.45;;;1.90;;
21999;SDS011;11164;48.818;2.322;2022-11-20T16:16:27;7.75;;;2.20;;
21999;SDS011;11164;48.818;2.322;2022-11-20T16:18:55;7.68;;;2.47;;
21999;SDS011;11164;48.818;2.322;2022-11-20T16:21:20;9.05;;;2.92;;
21999;SDS011;11164;48.818;2.322;2022-11-20T16:26:21;6.80;;;2.13;;
21999;SDS011;11164;48.818;2.322;2022-11-20T16:28:47;7.85;;;2.20;;
21999;SDS011;11164;48.818;2.322;2022-11-20T16:31:13;9.38;;;2.55;;
21999;SDS011;11164;48.818;2.322;2022-11-20T16:33:40;10.38;;;2.67;;
21999;SDS011;11164;48.818;2.322;2022-11-20T16:36:13;6.68;;;2.85;;
21999;SDS011;11164;48.818;2.322;2022-11-20T16:38:39;10.65;;;2.67;;
21999;SDS011;11164;48.818;2.322;2022-11-20T16:41:05;9.55;;;2.97;;
21999;SDS011;11164;48.818;2.322;2022-11-20T16:43:31;13.23;;;2.72;;